Time;durP1;ratioP1;P1;durP2;ratioP2;P2;SDS_P1;SDS_P2;PMS_P1;PMS_P2;Temp;Humidity;BMP_temperature;BMP_pressure;BME280_temperature;BME280_humidity;BME280_pressure;Samples;Min_cycle;Max_cycle;Signal;HPM_P1;HPM_P2
2022/08/11 00:00:56;;;;;;;7.97;4.40;;;;;;;20.54;52.36;93169.34;2071109;69;20627;-75
2022/08/11 00:03:23;;;;;;;6.68;4.03;;;;;;;20.62;51.41;93162.41;2070971;69;20170;-75
2022/08/11 00:05:55;;;;;;;9.10;4.70;;;;;;;20.72;51.26;93157.03;2067404;69;20220;-75
2022/08/11 00:08:30;;;;;;;6.38;4.07;;;;;;;20.60;52.14;93165.22;2071044;69;20278;-74
2022/08/11 00:11:05;;;;;;;5.43;3.65;;;;;;;20.34;52.09;93159.38;2071035;69;20506;-75
2022/08/11 00:13:41;;;;;;;5.70;4.20;;;;;;;20.38;51.95;93156.63;2070992;69;20594;-75
2022/08/11 00:16:14;;;;;;;5.82;3.95;;;;;;;20.34;53.36;93162.22;2070638;69;20498;-76
2022/08/11 00:18:50;;;;;;;7.47;4.22;;;;;;;20.37;52.74;93160.91;2070762;69;20479;-75
2022/08/11 00:21:17;;;;;;;4.63;3.95;;;;;;;20.27;53.44;93161.31;2070865;69;20226;-75
2022/08/11 00:23:46;;;;;;;5.28;3.88;;;;;;;20.06;54.03;93154.94;2067392;69;20593;-75
2022/08/11 00:26:14;;;;;;;6.40;4.38;;;;;;;20.12;53.51;93151.56;2067279;69;20591;-75
2022/08/11 00:28:40;;;;;;;4.70;3.92;;;;;;;20.45;51.18;93155.44;2070908;69;20210;-75
2022/08/11 00:31:09;;;;;;;5.75;4.25;;;;;;;20.30;52.05;93160.72;2071215;69;20156;-75
2022/08/11 00:33:43;;;;;;;5.43;4.30;;;;;;;20.19;53.17;93158.91;2070905;69;20617;-75
2022/08/11 00:36:13;;;;;;;8.73;4.35;;;;;;;20.13;52.82;93164.44;2070970;69;20133;-75
2022/08/11 00:38:42;;;;;;;6.97;4.22;;;;;;;20.07;52.89;93169.97;2070789;69;20171;-76
2022/08/11 00:41:16;;;;;;;7.82;4.60;;;;;;;20.01;53.34;93164.03;2070628;69;20155;-75
2022/08/11 00:43:53;;;;;;;5.43;4.38;;;;;;;20.01;53.27;93161.19;2070868;69;20151;-75
2022/08/11 00:46:41;;;;;;;7.80;4.50;;;;;;;20.25;52.28;93156.28;2070787;69;20159;-76
2022/08/11 00:49:15;;;;;;;4.90;4.25;;;;;;;19.89;54.07;93152.94;2070731;69;20183;-75
2022/08/11 00:51:53;;;;;;;8.77;4.30;;;;;;;19.82;54.18;93156.25;2070752;69;20156;-76
2022/08/11 00:54:42;;;;;;;10.32;4.70;;;;;;;19.94;52.70;93151.69;2070630;69;20140;-76
2022/08/11 00:57:23;;;;;;;6.93;4.18;;;;;;;19.45;55.42;93157.81;2070295;69;20144;-76
2022/08/11 00:59:58;;;;;;;6.82;4.18;;;;;;;19.80;53.77;93163.38;2070755;69;20145;-75
2022/08/11 01:03:03;;;;;;;6.25;4.10;;;;;;;19.67;54.25;93160.75;2070583;69;20183;-75
2022/08/11 01:06:00;;;;;;;4.40;4.00;;;;;;;19.82;53.61;93151.28;2070047;69;20293;-76
2022/08/11 01:08:28;;;;;;;8.05;4.38;;;;;;;19.62;54.51;93154.19;2070288;69;20148;-76
2022/08/11 01:11:12;;;;;;;6.13;4.45;;;;;;;19.68;53.90;93148.66;2070258;69;20187;-76
2022/08/11 01:14:15;;;;;;;8.38;4.88;;;;;;;19.59;54.14;93154.72;2070471;69;20237;-76
2022/08/11 01:16:44;;;;;;;5.70;4.53;;;;;;;19.34;55.03;93151.03;2071051;69;20610;-76
2022/08/11 01:19:48;;;;;;;6.63;4.47;;;;;;;19.54;54.60;93157.44;2071157;69;20741;-76
2022/08/11 01:22:39;;;;;;;6.78;4.55;;;;;;;19.40;54.61;93153.38;2070992;69;20215;-76
2022/08/11 01:25:26;;;;;;;6.50;4.10;;;;;;;19.59;53.53;93164.03;2071538;69;20336;-76
2022/08/11 01:28:16;;;;;;;5.85;4.20;;;;;;;19.69;51.90;93161.53;2068008;69;20152;-76
2022/08/11 01:31:04;;;;;;;6.03;4.50;;;;;;;19.68;52.16;93159.38;2071139;69;20696;-76
2022/08/11 01:33:50;;;;;;;7.70;4.18;;;;;;;19.63;53.49;93163.47;2071271;69;20584;-76
2022/08/11 01:36:50;;;;;;;12.88;5.22;;;;;;;19.21;56.00;93160.56;2071277;69;20146;-75
2022/08/11 01:39:46;;;;;;;7.03;4.82;;;;;;;19.34;54.86;93158.88;2071430;69;20160;-75
2022/08/11 01:46:09;;;;;;;8.32;4.95;;;;;;;18.79;56.29;93161.19;2071468;69;20183;-75
2022/08/11 01:49:08;;;;;;;7.70;4.70;;;;;;;19.04;53.84;93147.81;2056760;69;20177;-75
2022/08/11 01:51:55;;;;;;;6.68;4.78;;;;;;;19.10;55.16;93138.72;2057228;69;20153;-76
2022/08/11 01:54:34;;;;;;;7.03;4.68;;;;;;;18.97;56.75;93155.44;2057504;69;20137;-75
2022/08/11 01:57:16;;;;;;;7.82;4.55;;;;;;;19.12;55.12;93145.25;2056992;69;20157;-74
2022/08/11 01:59:56;;;;;;;4.97;4.20;;;;;;;19.18;53.79;93147.59;2056954;69;20700;-77
2022/08/11 02:02:46;;;;;;;5.05;4.55;;;;;;;19.07;54.41;93157.19;2056773;69;20157;-75
2022/08/11 02:05:28;;;;;;;5.75;4.55;;;;;;;18.78;56.84;93154.03;2056508;69;20161;-75
2022/08/11 02:08:09;;;;;;;9.15;4.90;;;;;;;19.04;55.27;93151.38;2056857;69;20179;-75
2022/08/11 02:14:11;;;;;;;6.07;3.97;;;;;;;19.00;55.65;93147.66;2056903;69;20629;-76
2022/08/11 02:17:14;;;;;;;7.55;5.05;;;;;;;19.15;55.02;93143.94;2056580;69;20184;-76
2022/08/11 02:26:06;;;;;;;8.15;4.90;;;;;;;18.92;55.83;93142.41;2067613;69;20615;-76
2022/08/11 02:28:54;;;;;;;8.57;5.30;;;;;;;18.98;54.73;93145.47;2070886;69;20140;-76
2022/08/11 02:34:41;;;;;;;9.48;5.60;;;;;;;18.94;55.49;93141.75;2071037;69;20163;-76
2022/08/11 02:37:23;;;;;;;7.18;5.45;;;;;;;18.86;55.17;93152.84;2070242;69;20239;-75
2022/08/11 02:39:57;;;;;;;8.38;5.70;;;;;;;18.20;58.81;93147.47;2070635;69;20517;-75
2022/08/11 02:42:45;;;;;;;7.25;5.60;;;;;;;18.38;57.04;93156.00;2071174;69;20132;-74
2022/08/11 02:45:10;;;;;;;6.60;5.35;;;;;;;18.43;55.74;93149.09;2067700;69;20128;-75
2022/08/11 02:51:01;;;;;;;8.30;4.85;;;;;;;18.61;55.76;93145.47;2071236;69;20152;-75
2022/08/11 02:53:38;;;;;;;6.03;5.00;;;;;;;18.49;56.37;93145.72;2067773;69;20144;-75
2022/08/11 02:56:07;;;;;;;8.68;5.63;;;;;;;18.40;56.57;93144.69;2067664;69;20526;-76
2022/08/11 03:01:55;;;;;;;7.93;5.28;;;;;;;18.45;56.63;93151.28;2070970;69;20143;-76
2022/08/11 03:05:09;;;;;;;9.23;5.65;;;;;;;18.48;56.52;93153.56;2071098;69;20136;-75
2022/08/11 03:07:51;;;;;;;6.57;5.30;;;;;;;18.40;57.15;93150.38;2053569;69;20557;-75
2022/08/11 03:10:24;;;;;;;6.23;5.57;;;;;;;18.33;56.54;93136.56;2050898;70;20152;-75
2022/08/11 03:16:47;;;;;;;7.25;5.13;;;;;;;18.29;56.39;93137.13;2071097;69;20247;-75
2022/08/11 03:19:50;;;;;;;10.80;5.03;;;;;;;18.33;57.65;93139.41;2071161;69;20471;-75
2022/08/11 03:22:23;;;;;;;6.15;5.40;;;;;;;18.31;56.28;93142.16;2071191;69;20163;-75
2022/08/11 03:25:30;;;;;;;6.03;5.28;;;;;;;18.13;58.33;93142.91;2071104;69;20152;-76
2022/08/11 03:28:08;;;;;;;7.78;5.22;;;;;;;18.12;57.78;93140.72;2071184;69;20152;-76
2022/08/11 03:30:55;;;;;;;8.63;6.38;;;;;;;18.14;56.75;93150.06;2071080;69;20172;-74
2022/08/11 03:36:45;;;;;;;8.52;5.57;;;;;;;18.27;55.08;93137.03;2071003;69;20167;-73
2022/08/11 03:39:40;;;;;;;8.52;5.72;;;;;;;18.13;56.95;93142.91;2070614;69;20237;-74
2022/08/11 03:42:09;;;;;;;7.03;5.50;;;;;;;18.17;56.91;93148.03;2070814;69;20510;-75
2022/08/11 03:45:04;;;;;;;6.90;5.53;;;;;;;18.03;57.87;93143.22;2070892;69;20259;-75
2022/08/11 03:48:06;;;;;;;7.40;5.85;;;;;;;17.96;58.07;93155.03;2070972;69;20152;-75
2022/08/11 03:51:05;;;;;;;6.97;5.20;;;;;;;18.08;56.91;93152.69;2064895;69;20247;-76
2022/08/11 03:54:03;;;;;;;6.43;5.63;;;;;;;17.85;59.20;93153.16;2070445;69;20152;-76
2022/08/11 03:56:47;;;;;;;8.15;5.68;;;;;;;17.66;59.45;93160.91;2070083;69;20156;-74
2022/08/11 03:59:38;;;;;;;7.88;5.35;;;;;;;17.71;59.52;93159.69;2070835;69;20144;-74
2022/08/11 04:02:19;;;;;;;12.32;6.10;;;;;;;17.66;59.21;93157.34;2070555;69;20222;-76
2022/08/11 04:05:23;;;;;;;6.78;5.72;;;;;;;17.66;58.61;93163.03;2071398;69;20258;-76
2022/08/11 04:08:13;;;;;;;9.95;5.57;;;;;;;17.71;57.93;93154.00;2071370;69;20617;-76
2022/08/11 04:10:58;;;;;;;8.80;5.82;;;;;;;17.64;58.80;93160.84;2071253;69;20147;-76
2022/08/11 04:15:58;;;;;;;7.45;5.78;;;;;;;17.56;58.61;93145.53;2071303;69;20580;-76
2022/08/11 04:17:00;;;;;;;6.80;5.78;;;;;;;17.64;58.68;93148.69;2071022;69;20172;-76
2022/08/11 04:19:43;;;;;;;10.27;5.90;;;;;;;17.61;59.19;93150.75;2071224;69;20160;-77
2022/08/11 04:22:28;;;;;;;10.27;5.55;;;;;;;17.64;59.80;93148.69;2071255;69;20144;-76
2022/08/11 04:25:12;;;;;;;6.18;5.55;;;;;;;17.55;59.72;93150.50;2071298;69;20186;-75
2022/08/11 04:28:00;;;;;;;6.60;5.63;;;;;;;17.63;58.76;93158.63;2071263;69;20144;-75
2022/08/11 04:30:29;;;;;;;8.43;5.30;;;;;;;17.60;58.62;93145.72;2071079;69;20144;-76
2022/08/11 04:33:09;;;;;;;6.80;5.50;;;;;;;17.64;58.90;93148.69;2071156;69;20144;-75
2022/08/11 04:35:52;;;;;;;8.57;5.75;;;;;;;17.71;58.15;93151.16;2071211;69;20176;-76
2022/08/11 04:38:17;;;;;;;5.50;4.97;;;;;;;17.69;57.93;93150.34;2071446;69;20148;-75
2022/08/11 04:41:13;;;;;;;64.40;37.00;;;;;;;17.61;59.24;93152.88;2071315;69;20252;-75
2022/08/11 04:43:57;;;;;;;11.02;8.15;;;;;;;17.49;59.69;93148.09;2071214;69;20160;-75
2022/08/11 04:46:42;;;;;;;8.23;5.53;;;;;;;17.65;57.78;93145.22;2071198;69;20183;-75
2022/08/11 05:01:41;;;;;;;11.10;6.40;;;;;;;17.48;58.95;93148.75;2071080;69;20194;-75
2022/08/11 05:07:55;;;;;;;8.48;5.75;;;;;;;17.47;60.21;93156.56;2057132;69;20179;-75
2022/08/11 05:10:42;;;;;;;9.88;6.20;;;;;;;17.26;59.87;93171.31;2057005;69;20141;-75
2022/08/11 05:36:07;;;;;;;9.88;6.95;;;;;;;17.60;59.31;93154.97;2056058;69;20661;-74
2022/08/11 05:58:09;;;;;;;56.22;29.48;;;;;;;17.77;60.37;93134.34;2070986;69;20153;-74
2022/08/11 06:00:46;;;;;;;7.30;5.72;;;;;;;17.61;61.98;93135.78;2071136;69;20227;-73
2022/08/11 06:03:25;;;;;;;7.82;6.55;;;;;;;17.61;61.67;93132.94;2067987;69;20630;-74
2022/08/11 06:05:51;;;;;;;8.75;6.38;;;;;;;17.65;61.33;93131.00;2071521;69;20144;-74
2022/08/11 06:08:29;;;;;;;10.90;7.15;;;;;;;17.24;63.22;93134.25;2071497;69;20224;-74
2022/08/11 06:11:00;;;;;;;24.55;13.93;;;;;;;17.57;59.99;93124.94;2071558;69;20221;-74
2022/08/11 06:13:27;;;;;;;10.00;6.72;;;;;;;17.68;60.29;93129.66;2071495;69;20243;-73
2022/08/11 06:15:54;;;;;;;9.77;6.72;;;;;;;17.51;61.02;93131.13;2071352;69;20572;-73
2022/08/11 06:18:21;;;;;;;9.48;6.90;;;;;;;17.72;60.82;93124.16;2071417;69;20251;-72
2022/08/11 06:20:56;;;;;;;10.02;6.70;;;;;;;17.76;59.67;93123.63;2071459;69;20167;-73
2022/08/11 06:23:30;;;;;;;11.93;7.18;;;;;;;17.79;60.17;93116.63;2071461;69;20163;-74
2022/08/11 06:25:57;;;;;;;19.10;11.90;;;;;;;17.87;59.95;93113.34;2071496;69;20148;-74
2022/08/11 06:28:37;;;;;;;8.93;6.72;;;;;;;17.81;59.66;93111.00;2071370;69;20160;-74
2022/08/11 06:31:12;;;;;;;13.73;8.75;;;;;;;18.00;57.14;93116.03;2071478;69;20245;-73
2022/08/11 06:33:52;;;;;;;11.55;8.18;;;;;;;17.97;59.45;93114.53;2071482;69;20166;-74
2022/08/11 06:36:21;;;;;;;9.57;6.80;;;;;;;17.99;60.98;93113.84;2071443;69;20140;-74
2022/08/11 06:39:19;;;;;;;8.55;6.32;;;;;;;18.11;59.37;93110.78;2071679;69;20243;-75
2022/08/11 06:41:53;;;;;;;7.95;5.68;;;;;;;18.41;58.30;93111.94;2067116;69;20176;-75
2022/08/11 06:44:27;;;;;;;7.13;5.68;;;;;;;18.41;60.27;93109.09;2066774;69;20156;-75
2022/08/11 06:46:54;;;;;;;8.57;5.28;;;;;;;18.46;57.51;93101.41;2070561;69;20140;-76
2022/08/11 06:52:16;;;;;;;6.60;5.07;;;;;;;18.92;57.91;93101.72;2070729;69;20612;-75
2022/08/11 06:55:04;;;;;;;9.45;5.50;;;;;;;19.03;56.08;93104.28;2070847;69;20527;-77
2022/08/11 07:00:29;;;;;;;7.97;6.47;;;;;;;19.34;58.41;93098.94;2070641;69;20258;-75
2022/08/11 07:03:12;;;;;;;6.47;5.63;;;;;;;19.49;57.93;93098.75;2070857;69;20142;-76
2022/08/11 07:06:04;;;;;;;6.78;6.07;;;;;;;19.48;59.20;93094.44;2071235;69;20148;-76
2022/08/11 07:17:21;;;;;;;6.65;5.80;;;;;;;20.27;59.81;93087.72;2071261;69;20233;-76
2022/08/11 07:31:29;;;;;;;6.22;5.40;;;;;;;22.31;57.32;93083.97;2071429;69;20210;-77
2022/08/11 07:34:10;;;;;;;11.27;5.80;;;;;;;22.51;54.86;93081.56;2068165;69;20308;-78
2022/08/11 07:36:41;;;;;;;6.05;5.15;;;;;;;23.05;55.29;93071.97;2071277;69;20149;-77
2022/08/11 07:39:14;;;;;;;5.43;4.85;;;;;;;23.38;54.39;93072.59;2071620;69;20231;-77
2022/08/11 07:41:41;;;;;;;5.68;5.07;;;;;;;23.65;53.46;93070.97;2071469;69;20545;-76
2022/08/11 07:44:07;;;;;;;5.63;4.80;;;;;;;24.01;52.61;93074.47;2068123;69;20231;-77
2022/08/11 07:52:31;;;;;;;5.63;4.70;;;;;;;24.29;48.42;93067.72;2071325;69;20172;-77
2022/08/11 07:55:15;;;;;;;5.45;4.80;;;;;;;24.81;47.52;93067.06;2071382;69;20354;-77
2022/08/11 08:19:53;;;;;;;5.40;4.57;;;;;;;25.76;42.77;93050.19;2071261;69;20167;-78
2022/08/11 08:22:20;;;;;;;5.28;4.78;;;;;;;26.50;43.17;93059.47;2071379;69;20136;-78
2022/08/11 08:24:47;;;;;;;4.80;4.30;;;;;;;26.54;42.08;93053.72;2071202;69;20136;-78
2022/08/11 08:27:14;;;;;;;7.07;5.03;;;;;;;26.58;40.63;93051.59;2071339;69;20596;-78
2022/08/11 08:32:27;;;;;;;6.80;4.40;;;;;;;26.68;40.87;93042.28;2071144;69;20132;-77
2022/08/11 08:34:57;;;;;;;4.82;4.28;;;;;;;27.34;38.28;93041.16;2071265;69;20186;-78
2022/08/11 08:37:25;;;;;;;6.43;3.97;;;;;;;27.33;39.17;93039.72;2071186;69;20184;-78
2022/08/11 08:39:52;;;;;;;5.63;4.00;;;;;;;27.89;38.54;93039.84;2071222;69;20628;-77
2022/08/11 08:42:22;;;;;;;4.72;3.90;;;;;;;29.56;35.88;93040.34;2071373;69;20152;-77
2022/08/11 08:45:01;;;;;;;4.80;3.90;;;;;;;28.65;38.28;93034.81;2071185;69;20138;-78
2022/08/11 08:47:28;;;;;;;5.15;3.90;;;;;;;29.04;36.65;93027.47;2071064;69;20178;-77
2022/08/11 08:50:00;;;;;;;5.60;3.80;;;;;;;29.19;36.79;93033.25;2067784;69;20156;-78
2022/08/11 08:52:30;;;;;;;5.50;4.00;;;;;;;28.50;36.57;93029.03;2071193;69;20286;-78
2022/08/11 08:55:01;;;;;;;4.20;3.72;;;;;;;29.20;36.89;93023.81;2071197;69;20548;-77
2022/08/11 08:57:28;;;;;;;7.85;4.00;;;;;;;28.99;36.38;93022.44;2071165;69;20495;-78
2022/08/11 08:59:55;;;;;;;4.97;3.80;;;;;;;28.70;35.80;93019.59;2071121;69;20235;-78
2022/08/11 09:02:25;;;;;;;5.82;3.70;;;;;;;29.72;36.99;93013.41;2071096;69;20156;-77
2022/08/11 09:04:51;;;;;;;4.97;4.00;;;;;;;29.70;34.67;93019.25;2071074;69;20145;-78
2022/08/11 09:07:22;;;;;;;4.05;3.70;;;;;;;29.13;35.31;93020.19;2071298;69;20148;-77
2022/08/11 09:09:50;;;;;;;4.75;4.03;;;;;;;28.59;35.34;93021.03;2071157;69;20148;-77
2022/08/11 09:12:24;;;;;;;5.53;3.97;;;;;;;28.97;35.08;93017.38;2071109;69;20247;-78
2022/08/11 09:15:02;;;;;;;6.75;3.78;;;;;;;29.45;37.12;93007.00;2071144;69;20140;-77
2022/08/11 09:17:43;;;;;;;7.22;4.03;;;;;;;29.79;35.03;93008.31;2071064;69;20213;-78
2022/08/11 09:20:18;;;;;;;8.63;3.83;;;;;;;30.46;33.48;93004.88;2071092;69;20268;-76
2022/08/11 09:28:19;;;;;;;5.82;4.00;;;;;;;30.61;34.49;93000.41;2071043;69;20132;-76
2022/08/11 09:30:52;;;;;;;5.78;4.00;;;;;;;30.08;34.30;92997.91;2071235;69;20635;-76
2022/08/11 09:33:18;;;;;;;7.80;3.95;;;;;;;29.41;35.13;92998.31;2067730;69;20204;-77
2022/08/11 09:35:47;;;;;;;6.05;4.03;;;;;;;30.77;34.62;92998.81;2071174;69;20556;-77
2022/08/11 09:41:04;;;;;;;5.25;3.95;;;;;;;29.77;34.28;92988.00;2071617;69;20645;-77
2022/08/11 09:46:20;;;;;;;5.60;3.78;;;;;;;32.21;31.00;92996.22;2071618;69;20805;-77
2022/08/11 09:48:46;;;;;;;5.70;3.67;;;;;;;32.00;31.89;92986.38;2071766;69;20179;-80
2022/08/11 09:51:14;;;;;;;4.40;3.85;;;;;;;30.52;33.18;92981.59;2071598;69;20209;-79
2022/08/11 09:53:42;;;;;;;5.68;4.03;;;;;;;31.09;32.87;92974.47;2071887;69;20243;-79
2022/08/11 09:59:03;;;;;;;6.00;3.60;;;;;;;31.97;31.11;92974.03;2071543;69;20138;-77
2022/08/11 10:01:42;;;;;;;5.45;3.72;;;;;;;31.76;31.01;92967.06;2071492;69;20210;-77
2022/08/11 10:04:15;;;;;;;6.20;4.20;;;;;;;31.23;30.92;92968.47;2071713;69;20228;-77
2022/08/11 10:07:02;;;;;;;6.60;4.03;;;;;;;30.97;32.12;92966.59;2071617;69;20202;-77
2022/08/11 10:09:50;;;;;;;4.45;3.78;;;;;;;31.59;31.67;92960.75;2071567;69;20152;-78
2022/08/11 10:12:28;;;;;;;6.10;3.88;;;;;;;31.85;30.67;92972.03;2071553;69;20579;-79
2022/08/11 10:20:34;;;;;;;4.47;3.95;;;;;;;31.87;31.26;92957.44;2071843;69;20172;-77
2022/08/11 10:28:31;;;;;;;6.20;4.07;;;;;;;32.75;30.15;92950.13;2071703;69;20583;-77
2022/08/11 10:33:59;;;;;;;7.30;3.97;;;;;;;33.90;29.24;92943.38;2071657;69;20200;-79
2022/08/11 10:36:34;;;;;;;5.82;3.10;;;;;;;34.68;28.97;92943.69;2071549;69;20140;-78
2022/08/11 10:39:03;;;;;;;5.45;3.47;;;;;;;35.52;29.03;92936.28;2071765;69;20176;-78
2022/08/11 10:44:15;;;;;;;4.00;3.25;;;;;;;35.82;26.84;92940.47;2071962;69;20508;-77
2022/08/11 10:49:26;;;;;;;4.60;2.67;;;;;;;36.61;27.32;92937.22;2071638;69;20164;-78
2022/08/11 11:00:15;;;;;;;3.90;2.70;;;;;;;39.28;23.85;92926.13;2071875;69;20140;-79
2022/08/11 11:02:45;;;;;;;4.35;2.33;;;;;;;40.26;22.16;92930.44;2071618;69;20556;-79
2022/08/11 11:05:25;;;;;;;3.83;2.28;;;;;;;41.86;20.53;92932.56;2071662;69;20182;-79
2022/08/11 11:07:59;;;;;;;3.40;2.30;;;;;;;43.02;18.47;92931.88;2071849;69;20223;-79
2022/08/11 11:10:25;;;;;;;4.85;2.33;;;;;;;46.05;17.36;92928.50;2071744;69;20285;-79
2022/08/11 11:18:34;;;;;;;6.50;2.15;;;;;;;48.48;14.89;92939.16;2068265;69;20236;-79
2022/08/11 11:21:13;;;;;;;2.20;2.10;;;;;;;48.83;14.89;92928.06;2068502;69;20227;-78
2022/08/11 11:23:38;;;;;;;4.32;2.03;;;;;;;48.89;14.28;92930.53;2068577;69;20145;-80
2022/08/11 11:26:37;;;;;;;4.97;2.33;;;;;;;50.06;13.48;92927.34;2068666;69;20143;-81
2022/08/11 11:29:40;;;;;;;6.05;2.20;;;;;;;51.64;12.92;92917.50;2068274;69;20220;-78
2022/08/11 11:32:27;;;;;;;3.00;1.90;;;;;;;51.54;13.52;92918.47;2068444;69;20154;-78
2022/08/11 11:34:52;;;;;;;4.38;1.98;;;;;;;53.15;11.92;92926.16;2068556;69;20161;-78
2022/08/11 11:37:19;;;;;;;2.58;1.70;;;;;;;54.38;12.29;92918.03;2067660;69;20149;-79
2022/08/11 11:39:45;;;;;;;2.13;1.80;;;;;;;52.05;12.50;92905.31;2068237;69;20133;-78
2022/08/11 11:42:12;;;;;;;4.85;1.90;;;;;;;52.51;11.46;92910.69;2068330;69;20160;-78
2022/08/11 11:44:42;;;;;;;4.88;1.60;;;;;;;52.93;12.41;92908.81;2068207;69;20215;-79
2022/08/11 11:47:11;;;;;;;4.25;1.80;;;;;;;53.74;11.03;92905.84;2067940;69;20152;-78
2022/08/11 11:49:42;;;;;;;2.90;1.67;;;;;;;52.20;11.84;92891.97;2068055;69;20197;-79
2022/08/11 11:52:12;;;;;;;;;;;;;;;54.63;11.04;92900.38;2068219;69;20160;-77
2022/08/11 11:54:39;;;;;;;2.88;1.80;;;;;;;52.14;11.50;92892.53;2068361;69;20376;-80
2022/08/11 12:02:39;;;;;;;3.85;1.70;;;;;;;53.18;11.44;92879.25;2062158;69;20148;-78
2022/08/11 12:05:06;;;;;;;3.47;1.80;;;;;;;53.72;11.96;92881.28;2067939;69;20183;-77
2022/08/11 12:10:17;;;;;;;3.88;1.85;;;;;;;50.43;12.47;92867.22;2066909;69;20151;-76
2022/08/11 12:15:31;;;;;;;5.68;2.00;;;;;;;49.27;12.03;92848.19;2064591;69;20157;-78
2022/08/11 12:17:59;;;;;;;2.10;1.90;;;;;;;51.63;11.28;92853.09;2067791;69;20238;-78
2022/08/11 12:20:25;;;;;;;5.05;2.30;;;;;;;51.73;11.12;92852.13;2067875;69;20173;-82
2022/08/11 12:28:21;;;;;;;4.75;2.00;;;;;;;51.73;10.73;92845.44;2067925;69;20160;-80
2022/08/11 12:30:50;;;;;;;3.55;2.28;;;;;;;50.78;11.15;92831.84;2067750;69;20145;-78
2022/08/11 12:33:17;;;;;;;5.25;2.42;;;;;;;51.89;10.38;92840.19;2067776;69;20215;-79
2022/08/11 12:35:43;;;;;;;3.70;2.00;;;;;;;50.90;10.20;92836.69;2068005;69;20242;-78
2022/08/11 12:38:09;;;;;;;5.15;2.20;;;;;;;49.92;11.33;92827.56;2067898;69;20616;-80
2022/08/11 12:46:32;;;;;;;4.40;2.28;;;;;;;50.98;10.34;92817.25;2067683;69;20140;-80
2022/08/11 12:52:00;;;;;;;2.67;2.08;;;;;;;47.94;12.38;92808.44;2067902;69;20141;-80
2022/08/11 12:54:32;;;;;;;5.22;2.13;;;;;;;52.16;10.60;92817.97;2067854;69;20195;-76
2022/08/11 13:05:20;;;;;;;2.78;2.00;;;;;;;54.48;9.66;92813.81;2070764;69;20293;-80
2022/08/11 13:07:48;;;;;;;5.03;2.15;;;;;;;51.90;9.44;92809.28;2070848;69;20307;-79
2022/08/11 13:12:46;;;;;;;3.17;2.03;;;;;;;53.68;9.05;92813.19;2070814;69;20172;-79
2022/08/11 13:13:07;;;;;;;4.32;2.35;;;;;;;50.26;10.26;92802.13;2068294;69;20175;-79
2022/08/11 13:15:38;;;;;;;7.88;2.30;;;;;;;48.98;10.70;92796.81;2071348;69;20160;-78
2022/08/11 13:18:06;;;;;;;3.25;2.13;;;;;;;51.01;10.11;92797.50;2071718;69;20515;-79
2022/08/11 13:20:33;;;;;;;2.50;2.00;;;;;;;51.30;9.97;92792.53;2071803;69;20179;-78
2022/08/11 13:23:00;;;;;;;3.20;2.03;;;;;;;49.70;11.02;92775.69;2071440;69;20176;-77
2022/08/11 13:25:30;;;;;;;3.15;1.92;;;;;;;48.47;11.79;92780.22;2071836;69;20144;-77
2022/08/11 13:27:58;;;;;;;4.18;2.00;;;;;;;51.22;10.68;92778.31;2071786;69;20714;-80
2022/08/11 13:33:16;;;;;;;4.00;2.50;;;;;;;47.15;11.89;92779.69;2071876;69;20615;-79
2022/08/11 13:35:44;;;;;;;2.50;2.30;;;;;;;48.17;11.47;92768.53;2071848;69;20219;-79
2022/08/11 13:38:13;;;;;;;2.95;2.55;;;;;;;51.42;10.18;92775.66;2072021;69;20205;-79
2022/08/11 13:40:40;;;;;;;3.63;2.30;;;;;;;49.60;11.56;92777.31;2071948;69;20224;-80
2022/08/11 13:43:08;;;;;;;2.35;2.05;;;;;;;47.01;12.20;92757.66;2072258;69;20345;-80
2022/08/11 13:45:36;;;;;;;4.68;2.10;;;;;;;46.80;13.48;92764.47;2071975;69;20148;-80
2022/08/11 13:48:07;;;;;;;2.28;2.10;;;;;;;46.04;13.61;92757.53;2071764;69;20233;-80
2022/08/11 13:53:21;;;;;;;4.45;2.45;;;;;;;41.07;17.17;92745.59;2071811;69;20184;-79
2022/08/11 13:55:48;;;;;;;2.45;2.25;;;;;;;41.42;16.83;92747.34;2071795;69;20592;-79
2022/08/11 13:58:15;;;;;;;3.40;2.33;;;;;;;40.24;18.29;92738.91;2071851;69;20140;-80
2022/08/11 14:00:47;;;;;;;2.70;2.42;;;;;;;38.91;19.29;92742.34;2071892;69;20599;-79
2022/08/11 14:03:13;;;;;;;6.68;2.70;;;;;;;39.78;18.94;92733.81;2068407;69;20213;-80
2022/08/11 14:05:45;;;;;;;2.90;2.70;;;;;;;39.08;19.68;92740.03;2068368;69;20619;-78
2022/08/11 14:08:13;;;;;;;;;;;;;;;38.42;20.00;92732.75;2071892;69;20148;-77
2022/08/11 14:10:41;;;;;;;3.10;2.80;;;;;;;37.71;20.59;92735.75;2071671;69;20168;-77
2022/08/11 14:16:03;;;;;;;3.67;3.00;;;;;;;37.51;21.30;92729.22;2071911;69;20239;-78
2022/08/11 14:18:31;;;;;;;7.70;3.25;;;;;;;36.00;22.88;92728.28;2068245;69;20224;-78
2022/08/11 14:23:47;;;;;;;6.78;3.47;;;;;;;34.22;24.92;92725.00;2071622;69;20153;-78
2022/08/11 14:26:27;;;;;;;3.85;3.28;;;;;;;34.07;24.50;92718.13;2071802;69;20202;-76
2022/08/11 14:29:13;;;;;;;7.05;3.55;;;;;;;34.37;23.99;92728.25;2071718;69;20257;-77
2022/08/11 14:31:47;;;;;;;6.40;3.38;;;;;;;34.34;24.21;92724.66;2068157;69;20254;-78
2022/08/11 14:34:17;;;;;;;5.55;3.72;;;;;;;34.00;25.16;92722.72;2071654;69;20144;-77
2022/08/11 14:36:52;;;;;;;3.97;3.47;;;;;;;33.60;25.20;92731.03;2071692;69;20167;-78
2022/08/11 14:39:21;;;;;;;7.78;3.60;;;;;;;33.03;26.80;92730.19;2071773;69;20192;-78
2022/08/11 14:47:35;;;;;;;;;;;;;;;33.48;26.55;92743.00;2071876;69;20220;-78
2022/08/11 14:50:05;;;;;;;6.63;3.80;;;;;;;32.99;26.63;92730.31;2071801;69;20052;-76
2022/08/11 14:52:37;;;;;;;4.97;3.60;;;;;;;32.00;28.24;92724.34;2071739;69;20205;-77
2022/08/11 14:57:50;;;;;;;6.38;3.92;;;;;;;30.82;29.88;92733.56;2071921;69;20222;-78
2022/08/11 15:00:17;;;;;;;6.40;3.95;;;;;;;30.22;30.33;92738.72;2068197;69;20164;-78
2022/08/11 15:05:33;;;;;;;7.15;4.00;;;;;;;31.84;28.39;92754.47;2071552;69;20136;-75
2022/08/11 15:08:04;;;;;;;6.75;4.25;;;;;;;30.69;29.88;92749.72;2071415;69;20140;-76
2022/08/11 15:10:45;;;;;;;5.32;4.32;;;;;;;31.01;30.21;92745.63;2071553;69;20179;-77
2022/08/11 15:13:17;;;;;;;6.28;4.28;;;;;;;31.31;29.86;92749.56;2071527;69;20663;-78
2022/08/11 15:18:31;;;;;;;6.93;4.03;;;;;;;31.26;29.96;92748.19;2071458;69;20535;-78
2022/08/11 15:37:44;;;;;;;6.25;4.53;;;;;;;30.43;31.43;92747.19;2071591;69;20140;-77
2022/08/11 15:46:41;;;;;;;6.85;3.90;;;;;;;30.73;31.28;92758.41;2054891;69;20173;-77
2022/08/11 15:49:17;;;;;;;6.07;4.50;;;;;;;30.84;31.29;92756.81;2054463;69;20196;-77
2022/08/11 15:51:50;;;;;;;9.05;4.22;;;;;;;30.53;31.21;92755.75;2054345;69;20288;-77
2022/08/11 15:54:19;;;;;;;8.27;4.47;;;;;;;30.33;31.46;92748.00;2057328;69;20672;-78
2022/08/11 15:56:50;;;;;;;8.13;4.28;;;;;;;29.94;33.07;92748.47;2057216;69;20206;-77
2022/08/11 16:04:52;;;;;;;5.70;4.20;;;;;;;29.32;33.21;92753.41;2059781;69;20196;-79
2022/08/11 16:07:25;;;;;;;4.40;3.97;;;;;;;29.96;32.43;92745.53;2060790;69;20248;-79
2022/08/11 16:10:08;;;;;;;5.45;4.30;;;;;;;30.33;31.99;92769.09;2054813;69;20141;-79
2022/08/11 16:12:36;;;;;;;;;;;;;;;30.45;31.93;92774.00;2057488;69;20138;-78
2022/08/11 16:17:58;;;;;;;8.35;4.30;;;;;;;30.44;31.26;92760.25;2059133;69;20661;-77
2022/08/11 16:20:25;;;;;;;7.30;4.50;;;;;;;30.03;31.57;92752.00;2071396;69;20148;-76
2022/08/11 16:22:55;;;;;;;8.68;4.20;;;;;;;29.31;33.63;92755.56;2071379;69;20147;-79
2022/08/11 16:25:23;;;;;;;7.65;4.30;;;;;;;30.19;32.16;92756.91;2071230;69;20285;-79
2022/08/11 16:27:56;;;;;;;5.65;3.92;;;;;;;30.46;32.18;92766.72;2067794;69;20231;-79
2022/08/11 16:30:23;;;;;;;6.15;3.90;;;;;;;30.15;32.85;92748.25;2071166;69;20167;-79
2022/08/11 16:32:52;;;;;;;10.93;4.10;;;;;;;30.29;33.26;92759.72;2071166;69;20148;-79
2022/08/11 16:40:53;;;;;;;4.03;3.40;;;;;;;30.30;32.63;92758.22;2071487;69;20156;-77
2022/08/11 16:48:54;;;;;;;6.38;4.00;;;;;;;29.98;32.58;92747.69;2067875;69;20226;-77
2022/08/11 16:51:23;;;;;;;5.20;4.20;;;;;;;30.06;33.34;92748.34;2067886;69;20204;-78
2022/08/11 16:53:49;;;;;;;6.10;3.78;;;;;;;30.13;34.53;92758.41;2071424;69;20176;-78
2022/08/11 16:56:18;;;;;;;4.43;4.03;;;;;;;30.23;33.75;92751.78;2071420;69;20163;-78
2022/08/11 17:01:35;;;;;;;5.40;4.20;;;;;;;30.25;34.59;92757.56;2074938;69;20175;-78
2022/08/11 17:13:10;;;;;;;5.03;3.85;;;;;;;30.15;33.11;92768.56;2074797;69;20131;-79
2022/08/11 17:16:06;;;;;;;5.57;3.88;;;;;;;30.25;32.38;92762.66;2074603;69;20164;-79
2022/08/11 17:19:03;;;;;;;5.90;3.80;;;;;;;30.18;34.26;92764.91;2071222;69;20144;-77